Карточка аэропорта UOOO

Внимание!
Информация на этой странице в стадии наполнения.
Если вы не увидели какой-то информации, или заметили неточность - пожалуйста сообщите нам!
Спасибо!
Команда RU-STAFF
Название аэропортаАлыкель
Название аэропорта (англ.)Alykel
Превышение574 ft. (175 m.)
Координаты69°19.02', 87°19.02'
Высота перехода1200m
Эшелон переходаQFE>744:FL60;744>QFE>717:FL70;717>QFE:FL80
Коды ответчика5401-5427
Зона ОрВДКрасноярск РПИ (UNKL)
Данные METARUOOO 122000Z 01005MPS CAVOK 19/18 Q1005 R01/CLRD60 NOSIG RMK QFE739/0985
Проноз погоды (TAF)UOOO 121955Z 1221/1321 02003G08MPS 6000 SCT017CB TEMPO 1221/1303 0500 -SHRA FG BKN003 BKN017CB BECMG 1223/1302 25005G12MPS BECMG 1309/1313 20003G08MPS TEMPO 1317/1321 0400 FG VV002
NOTAMshow/hide NOTAM
AWOS   TABLE

Информация о ВПП

ВПП Длина ВПП (м.) Покрытие Курс ВПП Частота ILS
193430Бетон193110.3
013430Бетон13109.5

Диспетчерские позиции

Позывной Наименование органа УВД Частота
UOOO_R_APPНорильск - Круг120.400
UOOO_GNDНорильск - Руление121.700
UOOO_TWRНорильск - Старт118.300



Спутниковое изображение